createdAt,value
2022-10-05T00:01:25.104Z,9.38
2022-10-05T00:03:59.042Z,10.70
2022-10-05T00:06:30.200Z,9.82
2022-10-05T00:08:58.598Z,9.77
2022-10-05T00:11:26.995Z,10.50
2022-10-05T00:13:55.493Z,10.15
2022-10-05T00:16:23.726Z,10.02
2022-10-05T00:18:54.164Z,10.27
2022-10-05T00:21:25.781Z,9.98
2022-10-05T00:23:59.659Z,9.67
2022-10-05T00:26:33.004Z,9.47
2022-10-05T00:29:03.465Z,9.05
2022-10-05T00:31:34.249Z,9.30
2022-10-05T00:34:02.719Z,8.60
2022-10-05T00:36:31.177Z,9.00
2022-10-05T00:39:03.005Z,9.05
2022-10-05T00:41:41.389Z,8.63
2022-10-05T00:44:25.787Z,8.10
2022-10-05T00:46:57.671Z,9.07
2022-10-05T00:49:41.308Z,9.65
2022-10-05T00:52:20.249Z,9.20
2022-10-05T00:55:00.811Z,8.05
2022-10-05T00:57:40.191Z,9.07
2022-10-05T01:00:13.037Z,8.77
2022-10-05T01:02:53.201Z,8.60
2022-10-05T01:05:36.103Z,8.27
2022-10-05T01:08:14.844Z,7.78
2022-10-05T01:10:48.402Z,7.53
2022-10-05T01:13:24.776Z,8.18
2022-10-05T01:15:59.516Z,7.30
2022-10-05T01:18:38.692Z,7.23
2022-10-05T01:21:16.831Z,7.18
2022-10-05T01:24:04.875Z,7.82
2022-10-05T01:26:57.299Z,7.18
2022-10-05T01:29:37.069Z,6.85
2022-10-05T01:32:24.266Z,7.37
2022-10-05T01:35:01.043Z,8.30
2022-10-05T01:37:37.282Z,6.90
2022-10-05T01:40:11.715Z,7.50
2022-10-05T01:42:56.060Z,7.13
2022-10-05T01:45:33.771Z,7.05
2022-10-05T01:48:10.585Z,7.72
2022-10-05T01:50:51.926Z,7.70
2022-10-05T01:53:32.264Z,7.00
2022-10-05T01:56:07.459Z,7.05
2022-10-05T01:58:42.672Z,6.93
2022-10-05T02:01:21.054Z,8.00
2022-10-05T02:03:54.170Z,7.22
2022-10-05T02:06:26.513Z,7.03
2022-10-05T02:09:04.516Z,7.68
2022-10-05T02:11:33.920Z,7.35
2022-10-05T02:14:08.355Z,7.32
2022-10-05T02:16:42.026Z,7.07
2022-10-05T02:19:16.160Z,6.65
2022-10-05T02:21:48.998Z,6.85
2022-10-05T02:24:23.956Z,6.90
2022-10-05T02:26:54.449Z,7.35
2022-10-05T02:29:27.903Z,6.18
2022-10-05T02:32:01.178Z,6.70
2022-10-05T02:34:32.009Z,6.72
2022-10-05T02:37:19.204Z,6.65
2022-10-05T02:40:13.374Z,6.83
2022-10-05T02:42:53.980Z,7.47
2022-10-05T02:45:28.763Z,7.03
2022-10-05T02:48:06.263Z,7.40
2022-10-05T02:50:43.047Z,7.05
2022-10-05T02:53:23.450Z,8.13
2022-10-05T02:56:02.013Z,7.60
2022-10-05T02:58:40.094Z,7.53
2022-10-05T03:01:16.638Z,6.93
2022-10-05T03:03:54.610Z,7.20
2022-10-05T03:06:26.518Z,8.35
2022-10-05T03:09:02.429Z,7.25
2022-10-05T03:11:42.145Z,7.80
2022-10-05T03:14:19.934Z,8.35
2022-10-05T03:17:01.294Z,8.90
2022-10-05T03:19:51.208Z,7.67
2022-10-05T03:22:32.336Z,7.82
2022-10-05T03:25:28.942Z,8.40
2022-10-05T03:28:04.174Z,8.55
2022-10-05T03:30:40.571Z,8.38
2022-10-05T03:33:15.895Z,7.27
2022-10-05T03:35:54.942Z,7.43
2022-10-05T03:38:31.458Z,7.17
2022-10-05T03:41:09.602Z,7.20
2022-10-05T03:43:53.691Z,8.53
2022-10-05T03:46:33.690Z,8.53
2022-10-05T03:49:11.957Z,9.60
2022-10-05T03:51:46.492Z,10.80
2022-10-05T03:54:23.541Z,10.70
2022-10-05T03:56:56.368Z,9.60
2022-10-05T03:59:32.655Z,8.93
2022-10-05T04:02:06.077Z,9.15
2022-10-05T04:04:38.652Z,8.53
2022-10-05T04:07:20.657Z,9.17
2022-10-05T04:09:52.228Z,9.02
2022-10-05T04:12:26.766Z,8.87
2022-10-05T04:15:01.718Z,8.95
2022-10-05T04:17:35.987Z,8.63
2022-10-05T04:20:08.551Z,8.87
2022-10-05T04:22:42.760Z,8.73
2022-10-05T04:25:18.703Z,8.83
2022-10-05T04:27:53.086Z,8.60
2022-10-05T04:30:23.118Z,8.80
2022-10-05T04:32:57.283Z,8.97
2022-10-05T04:35:50.453Z,8.00
2022-10-05T04:38:31.383Z,7.33
2022-10-05T04:41:15.392Z,7.40
2022-10-05T04:43:55.573Z,7.03
2022-10-05T04:46:34.422Z,7.80
2022-10-05T04:49:38.917Z,8.50
2022-10-05T04:52:17.906Z,9.63
2022-10-05T04:55:02.614Z,8.10
2022-10-05T04:57:40.998Z,8.50
2022-10-05T05:00:23.881Z,9.87
2022-10-05T05:03:32.059Z,7.27
2022-10-05T05:06:18.666Z,9.13
2022-10-05T05:09:16.085Z,7.90
2022-10-05T05:11:59.139Z,8.13
2022-10-05T05:14:47.715Z,9.30
2022-10-05T05:17:29.889Z,8.37
2022-10-05T05:20:06.786Z,8.37
2022-10-05T05:22:47.936Z,8.20
2022-10-05T05:25:35.579Z,8.20
2022-10-05T05:28:18.225Z,8.23
2022-10-05T05:30:52.102Z,8.00
2022-10-05T05:33:23.228Z,8.07
2022-10-05T05:36:22.993Z,7.77
2022-10-05T05:39:05.081Z,8.83
2022-10-05T05:41:39.520Z,7.83
2022-10-05T05:44:21.388Z,7.83
2022-10-05T05:47:04.423Z,7.60
2022-10-05T05:49:51.753Z,8.23
2022-10-05T05:52:26.302Z,7.80
2022-10-05T05:54:59.521Z,8.00
2022-10-05T05:57:34.401Z,7.73
2022-10-05T06:00:07.720Z,7.23
2022-10-05T06:02:51.988Z,8.67
2022-10-05T06:05:29.878Z,7.87
2022-10-05T06:08:03.145Z,7.87
2022-10-05T06:10:41.404Z,7.50
2022-10-05T06:13:19.072Z,8.37
2022-10-05T06:15:54.810Z,8.37
2022-10-05T06:18:24.776Z,7.87
2022-10-05T06:21:01.674Z,9.03
2022-10-05T06:23:37.168Z,7.43
2022-10-05T06:26:14.783Z,7.83
2022-10-05T06:28:51.605Z,8.73
2022-10-05T06:31:31.599Z,8.53
2022-10-05T06:34:15.384Z,7.63
2022-10-05T06:36:49.901Z,8.63
2022-10-05T06:39:38.390Z,8.23
2022-10-05T06:42:22.045Z,8.67
2022-10-05T06:45:20.336Z,8.90
2022-10-05T06:48:05.337Z,7.03
2022-10-05T06:51:04.266Z,8.00
2022-10-05T06:53:47.825Z,7.83
2022-10-05T06:56:22.051Z,7.43
2022-10-05T06:58:58.209Z,7.20
2022-10-05T07:01:39.040Z,6.97
2022-10-05T07:04:22.407Z,8.67
2022-10-05T07:06:55.744Z,8.20
2022-10-05T07:09:33.700Z,6.80
2022-10-05T07:12:34.331Z,7.30
2022-10-05T07:15:19.257Z,7.57
2022-10-05T07:17:59.362Z,7.37
2022-10-05T07:20:33.723Z,7.00
2022-10-05T07:23:16.869Z,5.90
2022-10-05T07:25:52.906Z,6.20
2022-10-05T07:28:29.194Z,4.93
2022-10-05T07:31:04.781Z,5.32
2022-10-05T07:33:41.311Z,4.70
2022-10-05T07:36:40.708Z,5.65
2022-10-05T07:39:14.420Z,5.00
2022-10-05T07:41:47.702Z,5.03
2022-10-05T07:44:23.666Z,5.35
2022-10-05T07:46:55.896Z,4.45
2022-10-05T07:49:37.580Z,4.32
2022-10-05T07:52:14.138Z,5.07
2022-10-05T07:54:49.609Z,4.80
2022-10-05T07:57:28.612Z,3.83
2022-10-05T08:00:01.842Z,3.70
2022-10-05T08:02:46.845Z,3.95
2022-10-05T08:05:22.382Z,5.18
2022-10-05T08:07:57.932Z,5.00
2022-10-05T08:10:33.955Z,6.35
2022-10-05T08:13:12.608Z,4.13
2022-10-05T08:15:43.879Z,6.13
2022-10-05T08:18:20.566Z,5.55
2022-10-05T08:20:51.850Z,5.20
2022-10-05T08:23:32.199Z,4.70
2022-10-05T08:26:14.618Z,4.22
2022-10-05T08:28:47.686Z,4.07
2022-10-05T08:31:24.378Z,4.43
2022-10-05T08:33:59.624Z,4.35
2022-10-05T08:36:44.067Z,4.75
2022-10-05T08:39:19.300Z,4.30
2022-10-05T08:42:24.476Z,4.50
2022-10-05T08:45:27.958Z,5.05
2022-10-05T08:48:12.820Z,4.93
2022-10-05T08:51:23.648Z,4.65
2022-10-05T08:54:09.699Z,3.30
2022-10-05T08:56:46.098Z,4.07
2022-10-05T08:59:54.681Z,4.15
2022-10-05T09:02:32.876Z,5.22
2022-10-05T09:05:18.531Z,3.70
2022-10-05T09:08:23.538Z,3.83
2022-10-05T09:11:04.772Z,4.55
2022-10-05T09:13:56.278Z,4.13
2022-10-05T09:16:49.034Z,3.33
2022-10-05T09:19:50.381Z,3.72
2022-10-05T09:22:35.062Z,4.00
2022-10-05T09:25:17.179Z,4.65
2022-10-05T09:27:54.106Z,3.28
2022-10-05T09:30:52.460Z,3.08
2022-10-05T09:34:03.114Z,3.05
2022-10-05T09:37:15.035Z,3.58
2022-10-05T09:40:23.890Z,4.45
2022-10-05T09:43:23.091Z,3.97
2022-10-05T09:46:28.130Z,3.22
2022-10-05T09:49:17.402Z,4.05
2022-10-05T09:52:06.979Z,3.30
2022-10-05T09:55:15.137Z,3.00
2022-10-05T09:58:12.614Z,2.72
2022-10-05T10:01:09.193Z,3.15
2022-10-05T10:04:15.355Z,3.15
2022-10-05T10:07:11.051Z,3.33
2022-10-05T10:09:50.719Z,2.97
2022-10-05T10:12:38.068Z,2.97
2022-10-05T10:15:42.819Z,2.88
2022-10-05T10:18:31.548Z,3.38
2022-10-05T10:21:34.888Z,2.95
2022-10-05T10:24:33.743Z,3.40
2022-10-05T10:27:23.272Z,2.63
2022-10-05T10:30:07.394Z,3.10
2022-10-05T10:33:22.370Z,2.88
2022-10-05T10:36:01.608Z,2.60
2022-10-05T10:38:55.142Z,3.53
2022-10-05T10:42:01.587Z,2.83
2022-10-05T10:44:59.298Z,3.00
2022-10-05T10:47:44.930Z,2.53
2022-10-05T10:50:50.122Z,2.25
2022-10-05T10:53:37.509Z,2.30
2022-10-05T10:56:27.876Z,2.67
2022-10-05T10:59:35.417Z,2.78
2022-10-05T11:02:32.824Z,3.38
2022-10-05T11:05:21.230Z,3.55
2022-10-05T11:08:06.960Z,2.88
2022-10-05T11:11:12.306Z,3.53
2022-10-05T11:14:02.724Z,2.80
2022-10-05T11:16:53.849Z,3.42
2022-10-05T11:19:59.216Z,3.58
2022-10-05T11:22:51.453Z,3.70
2022-10-05T11:25:50.077Z,3.67
2022-10-05T11:28:50.692Z,3.20
2022-10-05T11:31:42.870Z,3.55
2022-10-05T11:34:53.120Z,2.90
2022-10-05T11:38:09.355Z,2.58
2022-10-05T11:41:12.470Z,3.13
2022-10-05T11:44:08.503Z,3.83
2022-10-05T11:46:43.795Z,3.72
2022-10-05T11:49:24.352Z,3.10
2022-10-05T11:52:00.869Z,2.45
2022-10-05T11:55:05.765Z,2.70
2022-10-05T11:57:34.601Z,2.67
2022-10-05T12:00:12.294Z,3.38
2022-10-05T12:03:09.353Z,3.28
2022-10-05T12:05:48.913Z,2.70
2022-10-05T12:08:29.220Z,3.40
2022-10-05T12:11:07.798Z,2.45
2022-10-05T12:13:43.266Z,2.42
2022-10-05T12:16:18.584Z,2.60
2022-10-05T12:19:03.168Z,3.65
2022-10-05T12:21:39.054Z,3.03
2022-10-05T12:24:15.324Z,3.17
2022-10-05T12:26:49.575Z,2.92
2022-10-05T12:29:24.561Z,3.58
2022-10-05T12:31:59.876Z,2.67
2022-10-05T12:34:42.258Z,3.50
2022-10-05T12:37:17.535Z,2.75
2022-10-05T12:39:52.161Z,3.13
2022-10-05T12:42:29.642Z,3.47
2022-10-05T12:45:11.155Z,2.97
2022-10-05T12:47:55.161Z,3.47
2022-10-05T12:50:30.690Z,3.05
2022-10-05T12:53:11.579Z,3.30
2022-10-05T12:55:46.427Z,3.65
2022-10-05T12:58:26.526Z,3.72
2022-10-05T13:01:02.364Z,3.13
2022-10-05T13:03:38.381Z,4.35
2022-10-05T13:06:16.397Z,2.92
2022-10-05T13:08:53.320Z,2.97
2022-10-05T13:11:29.462Z,3.33
2022-10-05T13:14:08.339Z,2.70
2022-10-05T13:16:41.350Z,4.93
2022-10-05T13:19:29.448Z,3.70
2022-10-05T13:22:22.250Z,3.60
2022-10-05T13:25:00.686Z,3.53
2022-10-05T13:27:32.503Z,3.05
2022-10-05T13:30:05.233Z,3.75
2022-10-05T13:32:37.010Z,3.25
2022-10-05T13:35:25.490Z,3.10
2022-10-05T13:38:04.384Z,3.83
2022-10-05T13:40:39.199Z,3.55
2022-10-05T13:43:17.923Z,3.25
2022-10-05T13:45:52.772Z,3.22
2022-10-05T13:48:47.867Z,3.05
2022-10-05T13:51:21.066Z,3.30
2022-10-05T13:53:57.370Z,3.53
2022-10-05T13:56:31.040Z,3.63
2022-10-05T13:59:11.906Z,3.72
2022-10-05T14:01:43.539Z,3.08
2022-10-05T14:04:17.804Z,4.00
2022-10-05T14:06:46.632Z,4.13
2022-10-05T14:09:32.278Z,3.80
2022-10-05T14:12:15.097Z,3.60
2022-10-05T14:14:48.961Z,3.72
2022-10-05T14:17:32.137Z,3.42
2022-10-05T14:20:03.968Z,4.07
2022-10-05T14:22:42.597Z,4.10
2022-10-05T14:25:18.270Z,3.88
2022-10-05T14:27:53.562Z,3.42
2022-10-05T14:30:24.282Z,3.35
2022-10-05T14:32:56.232Z,4.47
2022-10-05T14:35:26.238Z,4.07
2022-10-05T14:38:00.429Z,3.38
2022-10-05T14:40:32.967Z,4.05
2022-10-05T14:43:17.205Z,3.75
2022-10-05T14:45:56.193Z,4.50
2022-10-05T14:48:27.984Z,3.45
2022-10-05T14:50:59.353Z,3.88
2022-10-05T14:53:39.126Z,4.80
2022-10-05T14:56:34.078Z,4.05
2022-10-05T14:59:23.232Z,4.07
2022-10-05T15:01:58.780Z,3.67
2022-10-05T15:04:41.727Z,3.42
2022-10-05T15:07:21.816Z,4.57
2022-10-05T15:10:19.122Z,3.53
2022-10-05T15:12:49.364Z,4.35
2022-10-05T15:15:28.485Z,3.55
2022-10-05T15:18:01.368Z,4.10
2022-10-05T15:20:38.546Z,4.55
2022-10-05T15:23:24.822Z,4.32
2022-10-05T15:26:03.996Z,3.85
2022-10-05T15:28:39.166Z,4.10
2022-10-05T15:31:26.924Z,3.58
2022-10-05T15:34:01.513Z,3.47
2022-10-05T15:36:36.832Z,3.65
2022-10-05T15:39:14.177Z,3.95
2022-10-05T15:42:01.781Z,3.28
2022-10-05T15:44:52.095Z,4.90
2022-10-05T15:47:23.983Z,3.63
2022-10-05T15:50:03.017Z,3.50
2022-10-05T15:52:37.130Z,3.70
2022-10-05T15:55:32.184Z,4.55
2022-10-05T15:58:17.492Z,3.63
2022-10-05T16:00:49.743Z,6.50
2022-10-05T16:03:24.317Z,4.97
2022-10-05T16:06:15.105Z,4.88
2022-10-05T16:08:55.475Z,5.75
2022-10-05T16:12:03.743Z,6.38
2022-10-05T16:14:58.229Z,6.45
2022-10-05T16:17:48.039Z,4.95
2022-10-05T16:20:28.880Z,4.40
2022-10-05T16:23:03.316Z,3.90
2022-10-05T16:25:44.028Z,3.67
2022-10-05T16:28:23.266Z,3.75
2022-10-05T16:31:00.218Z,3.97
2022-10-05T16:33:46.578Z,3.80
2022-10-05T16:36:23.705Z,6.53
2022-10-05T16:39:00.658Z,6.68
2022-10-05T16:41:34.967Z,5.00
2022-10-05T16:44:11.917Z,4.90
2022-10-05T16:46:49.656Z,5.20
2022-10-05T16:49:31.496Z,5.40
2022-10-05T16:52:01.215Z,4.95
2022-10-05T16:54:33.329Z,4.95
2022-10-05T16:57:10.818Z,5.15
2022-10-05T17:00:10.868Z,7.00
2022-10-05T17:03:11.254Z,5.93
2022-10-05T17:05:58.837Z,6.05
2022-10-05T17:08:46.198Z,5.63
2022-10-05T17:11:28.716Z,5.30
2022-10-05T17:14:15.961Z,6.18
2022-10-05T17:17:01.832Z,7.38
2022-10-05T17:19:46.443Z,5.75
2022-10-05T17:22:26.251Z,6.90
2022-10-05T17:25:02.721Z,6.60
2022-10-05T17:27:35.611Z,7.53
2022-10-05T17:30:37.595Z,7.18
2022-10-05T17:33:20.428Z,7.88
2022-10-05T17:36:12.827Z,7.72
2022-10-05T17:38:53.499Z,7.72
2022-10-05T17:41:24.828Z,7.47
2022-10-05T17:44:20.164Z,8.13
2022-10-05T17:46:51.116Z,8.77
2022-10-05T17:50:14.977Z,8.93
2022-10-05T17:53:02.560Z,8.48
2022-10-05T17:55:47.105Z,8.30
2022-10-05T17:59:00.612Z,8.68
2022-10-05T18:01:31.677Z,8.15
2022-10-05T18:04:39.155Z,8.40
2022-10-05T18:07:22.852Z,8.85
2022-10-05T18:09:55.785Z,9.75
2022-10-05T18:12:40.753Z,9.77
2022-10-05T18:15:48.390Z,10.10
2022-10-05T18:18:56.497Z,9.73
2022-10-05T18:21:39.416Z,11.05
2022-10-05T18:24:42.095Z,12.40
2022-10-05T18:27:34.264Z,13.25
2022-10-05T18:30:18.336Z,12.57
2022-10-05T18:33:13.056Z,11.38
2022-10-05T18:35:53.424Z,10.10
2022-10-05T18:38:34.246Z,10.13
2022-10-05T18:41:08.971Z,10.65
2022-10-05T18:43:48.007Z,10.45
2022-10-05T18:46:33.929Z,10.48
2022-10-05T18:49:18.167Z,10.13
2022-10-05T18:51:53.497Z,10.95
2022-10-05T18:54:39.192Z,8.68
2022-10-05T18:57:39.493Z,9.35
2022-10-05T19:00:16.518Z,9.27
2022-10-05T19:02:49.453Z,10.23
2022-10-05T19:05:49.129Z,9.70
2022-10-05T19:08:28.895Z,9.90
2022-10-05T19:11:03.557Z,10.40
2022-10-05T19:13:42.602Z,10.77
2022-10-05T19:16:30.630Z,11.18
2022-10-05T19:19:10.713Z,11.52
2022-10-05T19:21:47.797Z,11.70
2022-10-05T19:24:34.235Z,11.60
2022-10-05T19:27:08.045Z,11.38
2022-10-05T19:29:53.678Z,11.48
2022-10-05T19:32:32.694Z,10.95
2022-10-05T19:35:13.315Z,10.57
2022-10-05T19:37:51.261Z,10.25
2022-10-05T19:40:26.505Z,10.05
2022-10-05T19:43:12.889Z,9.27
2022-10-05T19:45:54.340Z,9.48
2022-10-05T19:48:31.002Z,9.02
2022-10-05T19:51:01.629Z,9.18
2022-10-05T19:53:36.225Z,8.98
2022-10-05T19:56:19.031Z,9.90
2022-10-05T19:58:48.398Z,9.77
2022-10-05T20:01:25.340Z,8.90
2022-10-05T20:03:55.474Z,9.57
2022-10-05T20:06:23.775Z,10.40
2022-10-05T20:08:54.345Z,11.43
2022-10-05T20:11:27.106Z,9.95
2022-10-05T20:14:18.230Z,9.65
2022-10-05T20:17:03.676Z,11.85
2022-10-05T20:19:59.707Z,11.32
2022-10-05T20:22:31.534Z,10.52
2022-10-05T20:25:02.238Z,10.15
2022-10-05T20:27:50.520Z,9.52
2022-10-05T20:30:20.798Z,9.98
2022-10-05T20:32:50.169Z,9.43
2022-10-05T20:35:23.022Z,9.55
2022-10-05T20:37:51.189Z,9.55
2022-10-05T20:40:21.188Z,10.10
2022-10-05T20:42:50.334Z,10.68
2022-10-05T20:45:18.752Z,12.55
2022-10-05T20:47:47.584Z,11.27
2022-10-05T20:50:16.228Z,11.25
2022-10-05T20:52:45.988Z,10.50
2022-10-05T20:55:14.187Z,10.05
2022-10-05T20:57:43.590Z,10.25
2022-10-05T21:00:13.629Z,10.80
2022-10-05T21:02:41.773Z,10.02
2022-10-05T21:05:10.518Z,11.15
2022-10-05T21:07:38.835Z,10.85
2022-10-05T21:10:09.374Z,9.65
2022-10-05T21:12:37.799Z,10.00
2022-10-05T21:15:06.974Z,10.27
2022-10-05T21:17:36.311Z,9.85
2022-10-05T21:20:05.203Z,9.45
2022-10-05T21:22:35.499Z,9.70
2022-10-05T21:25:03.638Z,10.13
2022-10-05T21:27:33.489Z,8.65
2022-10-05T21:30:01.857Z,9.05
2022-10-05T21:32:29.992Z,10.43
2022-10-05T21:34:58.294Z,9.50
2022-10-05T21:37:26.408Z,9.05
2022-10-05T21:39:54.514Z,7.95
2022-10-05T21:42:23.583Z,8.70
2022-10-05T21:44:53.198Z,10.07
2022-10-05T21:47:21.361Z,10.07
2022-10-05T21:49:49.776Z,9.40
2022-10-05T21:52:18.034Z,9.32
2022-10-05T21:54:46.260Z,8.77
2022-10-05T21:57:15.361Z,8.60
2022-10-05T21:59:44.188Z,8.43
2022-10-05T22:02:13.719Z,7.57
2022-10-05T22:04:42.241Z,9.15
2022-10-05T22:07:19.008Z,8.45
2022-10-05T22:09:48.723Z,8.35
2022-10-05T22:12:17.294Z,8.02
2022-10-05T22:14:45.450Z,8.38
2022-10-05T22:17:24.407Z,7.57
2022-10-05T22:19:52.859Z,8.18
2022-10-05T22:22:21.802Z,7.53
2022-10-05T22:24:50.002Z,8.15
2022-10-05T22:27:18.239Z,7.47
2022-10-05T22:29:47.097Z,7.50
2022-10-05T22:32:16.774Z,6.97
2022-10-05T22:34:44.998Z,6.78
2022-10-05T22:37:15.299Z,5.95
2022-10-05T22:39:44.258Z,7.18
2022-10-05T22:42:12.547Z,6.63
2022-10-05T22:44:42.211Z,7.53
2022-10-05T22:47:10.342Z,7.43
2022-10-05T22:49:39.813Z,7.30
2022-10-05T22:52:08.440Z,7.82
2022-10-05T22:54:37.384Z,6.80
2022-10-05T22:57:05.744Z,7.30
2022-10-05T22:59:34.079Z,7.50
2022-10-05T23:02:02.351Z,7.25
2022-10-05T23:04:30.980Z,7.90
2022-10-05T23:07:00.621Z,6.80
2022-10-05T23:09:28.773Z,7.22
2022-10-05T23:11:57.085Z,7.40
2022-10-05T23:14:25.977Z,7.07
2022-10-05T23:16:54.526Z,6.18
2022-10-05T23:19:23.315Z,6.72
2022-10-05T23:21:51.620Z,5.93
2022-10-05T23:24:21.088Z,6.28
2022-10-05T23:26:49.165Z,6.53
2022-10-05T23:29:17.482Z,7.00
2022-10-05T23:31:46.033Z,6.78
2022-10-05T23:34:14.217Z,6.35
2022-10-05T23:36:42.489Z,7.28
2022-10-05T23:39:10.626Z,6.72
2022-10-05T23:41:40.478Z,6.32
2022-10-05T23:44:08.766Z,5.93
2022-10-05T23:46:36.820Z,6.70
2022-10-05T23:49:05.185Z,6.38
2022-10-05T23:51:33.673Z,5.57
2022-10-05T23:54:01.819Z,6.55
2022-10-05T23:56:31.081Z,6.30
2022-10-05T23:59:00.979Z,6.30
